Time;durP1;ratioP1;P1;durP2;ratioP2;P2;SDS_P1;SDS_P2;PMS_P1;PMS_P2;Temp;Humidity;BMP_temperature;BMP_pressure;BME280_temperature;BME280_humidity;BME280_pressure;Samples;Min_cycle;Max_cycle;Signal;HPM_P1;HPM_P2
2024/02/11 00:00:34;;;;;;;31.23;21.17;;;9.90;99.90;;;;;;5019492;28;20112;-78
2024/02/11 00:03:01;;;;;;;31.75;19.33;;;9.80;99.90;;;;;;5036117;28;20036;-78
2024/02/11 00:05:27;;;;;;;32.00;21.10;;;10.00;99.90;;;;;;5035808;28;20045;-78
2024/02/11 00:07:53;;;;;;;32.13;18.95;;;10.00;99.90;;;;;;5054772;28;20044;-77
2024/02/11 00:10:19;;;;;;;32.38;18.33;;;9.80;99.90;;;;;;5038363;28;20082;-77
2024/02/11 00:12:45;;;;;;;30.73;19.75;;;10.00;99.90;;;;;;5037319;28;20037;-75
2024/02/11 00:15:11;;;;;;;30.65;19.52;;;9.90;99.90;;;;;;5019853;28;20043;-77
2024/02/11 00:17:37;;;;;;;31.33;19.52;;;10.00;99.90;;;;;;5038031;28;20033;-77
2024/02/11 00:20:07;;;;;;;30.90;18.73;;;10.00;99.90;;;;;;5038836;28;20307;-77
2024/02/11 00:22:33;;;;;;;31.80;18.35;;;9.90;99.90;;;;;;5006533;28;20094;-77
2024/02/11 00:25:01;;;;;;;33.65;18.85;;;9.80;99.90;;;;;;5038552;28;20049;-78
2024/02/11 00:27:26;;;;;;;32.40;19.08;;;9.70;99.90;;;;;;5038893;28;20473;-77
2024/02/11 00:29:52;;;;;;;31.40;18.80;;;9.70;99.90;;;;;;5038731;28;20056;-78
2024/02/11 00:32:18;;;;;;;27.45;17.73;;;9.90;99.90;;;;;;5056642;28;20401;-77
2024/02/11 00:34:44;;;;;;;28.60;18.30;;;9.80;99.90;;;;;;5022330;28;20123;-78
2024/02/11 00:37:13;;;;;;;28.65;17.67;;;9.80;99.90;;;;;;5038388;28;20524;-78
2024/02/11 00:39:38;;;;;;;30.08;18.67;;;9.80;99.90;;;;;;5035898;28;20041;-76
2024/02/11 00:42:04;;;;;;;31.38;17.17;;;9.90;99.90;;;;;;5054113;28;20045;-77
2024/02/11 00:44:34;;;;;;;29.83;17.45;;;9.80;99.90;;;;;;5036349;28;20063;-76
2024/02/11 00:47:01;;;;;;;27.83;17.38;;;9.80;99.90;;;;;;5035727;28;20182;-78
2024/02/11 00:49:31;;;;;;;28.02;16.48;;;9.90;99.90;;;;;;5035933;28;20558;-77
2024/02/11 00:51:57;;;;;;;25.58;16.75;;;9.80;99.90;;;;;;5019384;28;20492;-77
2024/02/11 00:54:22;;;;;;;25.52;16.40;;;9.80;99.90;;;;;;5035920;28;20044;-77
2024/02/11 00:56:55;;;;;;;27.25;16.15;;;9.90;99.90;;;;;;5019440;28;20087;-77
2024/02/11 00:59:21;;;;;;;27.23;15.73;;;9.70;99.90;;;;;;5019248;28;20044;-77
2024/02/11 01:01:48;;;;;;;28.17;16.05;;;9.80;99.90;;;;;;5053869;28;20033;-77
2024/02/11 01:04:14;;;;;;;25.75;16.15;;;9.70;99.90;;;;;;5036056;28;20170;-77
2024/02/11 01:06:40;;;;;;;24.90;15.95;;;9.80;99.90;;;;;;5035848;28;20041;-78
2024/02/11 01:09:06;;;;;;;24.90;15.25;;;9.80;99.90;;;;;;5019520;28;20538;-77
2024/02/11 01:11:31;;;;;;;27.02;15.85;;;9.90;99.90;;;;;;5035638;28;20531;-77
2024/02/11 01:13:57;;;;;;;29.38;15.82;;;9.90;99.90;;;;;;5035545;28;20037;-77
2024/02/11 01:16:23;;;;;;;24.95;15.80;;;9.70;99.90;;;;;;5035637;28;20032;-77
2024/02/11 01:18:49;;;;;;;25.60;16.73;;;9.80;99.90;;;;;;5035574;28;20102;-77
2024/02/11 01:21:14;;;;;;;26.75;16.00;;;9.70;99.90;;;;;;5035397;28;20037;-78
2024/02/11 01:23:40;;;;;;;29.67;17.05;;;9.70;99.90;;;;;;5035481;28;20049;-77
2024/02/11 01:26:06;;;;;;;34.65;18.50;;;9.70;99.90;;;;;;5034998;28;20496;-77
2024/02/11 01:28:31;;;;;;;35.30;20.30;;;9.70;99.90;;;;;;5035214;28;20036;-77
2024/02/11 01:30:57;;;;;;;37.85;20.63;;;9.60;99.90;;;;;;5018562;28;20047;-77
2024/02/11 01:33:23;;;;;;;39.28;21.88;;;9.80;99.90;;;;;;5053199;28;20040;-77
2024/02/11 01:35:49;;;;;;;42.20;22.25;;;9.70;99.90;;;;;;5035043;28;20033;-77
2024/02/11 01:38:15;;;;;;;54.50;25.52;;;9.60;99.90;;;;;;5035001;28;20044;-77
2024/02/11 01:40:41;;;;;;;42.97;22.30;;;9.70;99.90;;;;;;5034929;28;20037;-76
2024/02/11 01:43:10;;;;;;;45.55;23.83;;;9.70;99.90;;;;;;5035325;28;20086;-77
2024/02/11 01:45:36;;;;;;;54.35;26.08;;;9.50;99.90;;;;;;5018732;28;20041;-77
2024/02/11 01:48:07;;;;;;;49.85;24.95;;;9.50;99.90;;;;;;5034974;28;20059;-77
2024/02/11 01:50:36;;;;;;;43.42;23.30;;;9.60;99.90;;;;;;5018695;28;20045;-77
2024/02/11 01:53:03;;;;;;;48.88;23.38;;;9.60;99.90;;;;;;5035022;28;20037;-78
2024/02/11 01:55:31;;;;;;;45.45;22.67;;;9.40;99.90;;;;;;5034783;28;20044;-76
2024/02/11 01:57:58;;;;;;;44.25;22.05;;;9.50;99.90;;;;;;5018154;28;20048;-77
2024/02/11 02:00:24;;;;;;;53.97;24.60;;;9.50;99.90;;;;;;5034991;28;20041;-78
2024/02/11 02:02:54;;;;;;;50.08;24.45;;;9.30;99.90;;;;;;5034889;28;20563;-78
2024/02/11 02:05:20;;;;;;;50.83;25.55;;;9.30;99.90;;;;;;5034741;28;20049;-77
2024/02/11 02:07:46;;;;;;;51.95;25.80;;;9.30;99.90;;;;;;5052580;28;20700;-78
2024/02/11 02:10:12;;;;;;;51.90;25.10;;;9.30;99.90;;;;;;5052653;28;20036;-78
2024/02/11 02:12:39;;;;;;;55.10;24.15;;;9.20;99.90;;;;;;5034857;28;20033;-78
2024/02/11 02:15:07;;;;;;;47.67;22.92;;;9.20;99.90;;;;;;5034377;28;20122;-77
2024/02/11 02:17:33;;;;;;;55.60;24.55;;;9.40;99.90;;;;;;5017979;28;20047;-78
2024/02/11 02:19:58;;;;;;;56.00;23.80;;;9.20;99.90;;;;;;5034275;28;20033;-77
2024/02/11 02:22:24;;;;;;;57.17;24.55;;;9.20;99.90;;;;;;5017872;28;20076;-78
2024/02/11 02:24:50;;;;;;;54.67;24.00;;;9.30;99.90;;;;;;5051785;28;20044;-77
2024/02/11 02:27:16;;;;;;;50.17;23.70;;;9.20;99.90;;;;;;5034385;28;20051;-76
2024/02/11 02:29:44;;;;;;;54.22;24.85;;;9.10;99.90;;;;;;5017388;28;20029;-77
2024/02/11 02:32:10;;;;;;;48.00;23.35;;;9.10;99.90;;;;;;5017512;28;20041;-77
2024/02/11 02:34:36;;;;;;;53.90;25.63;;;9.20;99.90;;;;;;5034078;28;20072;-77
2024/02/11 02:37:03;;;;;;;49.22;23.38;;;9.30;99.90;;;;;;5017765;28;20128;-78
2024/02/11 02:39:29;;;;;;;51.45;25.40;;;9.00;99.90;;;;;;5052176;28;20128;-78
2024/02/11 02:41:54;;;;;;;53.70;25.17;;;8.90;99.90;;;;;;5034232;28;20123;-78
2024/02/11 02:44:20;;;;;;;53.53;25.25;;;9.20;99.90;;;;;;5034120;28;20053;-77
2024/02/11 02:46:46;;;;;;;46.40;23.35;;;9.30;99.90;;;;;;5034026;28;20033;-76
2024/02/11 02:49:12;;;;;;;48.35;22.00;;;9.00;99.90;;;;;;5033821;28;20440;-77
2024/02/11 02:51:39;;;;;;;50.88;22.85;;;9.00;99.90;;;;;;5034370;28;20108;-77
2024/02/11 02:54:05;;;;;;;51.47;22.50;;;9.30;99.90;;;;;;5034040;28;20037;-77
2024/02/11 02:56:34;;;;;;;50.35;22.98;;;9.00;99.90;;;;;;5034535;28;20037;-77
2024/02/11 02:59:05;;;;;;;52.70;22.67;;;9.10;99.90;;;;;;5034010;28;20087;-78
2024/02/11 03:01:31;;;;;;;44.65;20.85;;;8.90;99.90;;;;;;5052152;28;20163;-78
2024/02/11 03:04:03;;;;;;;52.63;23.48;;;9.10;99.90;;;;;;5017439;28;20545;-77
2024/02/11 03:06:29;;;;;;;49.80;21.60;;;9.10;99.90;;;;;;5033744;28;20037;-77
2024/02/11 03:08:55;;;;;;;48.70;22.98;;;9.20;99.90;;;;;;5033911;28;20531;-78
2024/02/11 03:11:21;;;;;;;48.70;21.45;;;8.90;99.90;;;;;;5033590;28;20397;-77
2024/02/11 03:13:46;;;;;;;49.55;21.83;;;9.10;99.90;;;;;;5051493;28;20040;-77
2024/02/11 03:16:15;;;;;;;53.38;22.95;;;9.00;99.90;;;;;;5033454;28;20052;-77
2024/02/11 03:18:42;;;;;;;57.35;23.20;;;9.00;99.90;;;;;;5033816;28;20059;-76
2024/02/11 03:21:09;;;;;;;47.45;20.65;;;8.90;99.90;;;;;;5033887;28;20048;-77
2024/02/11 03:23:35;;;;;;;52.65;21.52;;;9.00;99.90;;;;;;5017116;28;20098;-77
2024/02/11 03:26:02;;;;;;;50.97;22.55;;;9.10;99.90;;;;;;5016940;28;20045;-77
2024/02/11 03:28:28;;;;;;;50.55;21.08;;;9.00;99.90;;;;;;5051537;28;20041;-78
2024/02/11 03:30:54;;;;;;;73.75;23.10;;;8.90;99.90;;;;;;5033631;28;20380;-77
2024/02/11 03:33:20;;;;;;;50.78;21.23;;;9.00;99.90;;;;;;5051143;28;20099;-77
2024/02/11 03:35:45;;;;;;;50.95;21.17;;;8.80;99.90;;;;;;5033948;28;20037;-77
2024/02/11 03:38:11;;;;;;;45.25;20.75;;;8.80;99.90;;;;;;5033659;28;20049;-77
2024/02/11 03:40:37;;;;;;;55.17;22.17;;;8.70;99.90;;;;;;5017354;28;20080;-77
2024/02/11 03:43:02;;;;;;;48.60;21.17;;;8.80;99.90;;;;;;5035532;28;20037;-77
2024/02/11 03:45:28;;;;;;;53.78;20.83;;;8.70;99.90;;;;;;5037854;28;20040;-78
2024/02/11 03:47:54;;;;;;;40.15;19.40;;;8.90;99.90;;;;;;5054800;28;20120;-77
2024/02/11 03:50:20;;;;;;;50.67;21.17;;;8.80;99.90;;;;;;5037028;28;20084;-77
2024/02/11 03:52:45;;;;;;;47.50;19.50;;;8.90;99.90;;;;;;5037195;28;20555;-77
2024/02/11 03:55:11;;;;;;;49.92;19.42;;;8.80;99.90;;;;;;5020361;28;20072;-77
2024/02/11 03:57:40;;;;;;;46.60;19.95;;;8.60;99.90;;;;;;5036805;28;20159;-76
2024/02/11 04:00:25;;;;;;;50.75;20.90;;;8.80;99.90;;;;;;5036818;28;20123;-77
2024/02/11 04:02:52;;;;;;;51.97;20.63;;;8.60;99.90;;;;;;5021335;28;20052;-77
2024/02/11 04:05:20;;;;;;;48.83;19.13;;;8.50;99.90;;;;;;5054466;28;20040;-77
2024/02/11 04:07:46;;;;;;;52.70;21.08;;;8.70;99.90;;;;;;5036486;28;20530;-77
2024/02/11 04:10:28;;;;;;;55.60;23.70;;;8.50;99.90;;;;;;5037096;28;20080;-77
2024/02/11 04:12:54;;;;;;;45.58;19.58;;;8.60;99.90;;;;;;5036565;28;20051;-77
2024/02/11 04:15:23;;;;;;;42.90;19.75;;;8.70;99.90;;;;;;5019899;28;20037;-77
2024/02/11 04:17:49;;;;;;;51.65;21.55;;;8.70;99.90;;;;;;5019914;28;20036;-77
2024/02/11 04:20:24;;;;;;;47.47;19.73;;;8.60;99.90;;;;;;5036449;28;20041;-77
2024/02/11 04:23:00;;;;;;;48.30;20.27;;;8.50;99.90;;;;;;5036749;28;20525;-77
2024/02/11 04:25:33;;;;;;;53.38;21.92;;;8.60;99.90;;;;;;5043952;22;20048;-80
2024/02/11 04:27:59;;;;;;;50.88;21.02;;;8.70;99.90;;;;;;5020367;28;20045;-80
2024/02/11 04:30:27;;;;;;;49.28;20.20;;;8.40;99.90;;;;;;5020003;28;20037;-80
2024/02/11 04:32:53;;;;;;;56.70;21.45;;;8.70;99.90;;;;;;5054304;28;20098;-80
2024/02/11 04:35:24;;;;;;;52.40;22.30;;;8.50;99.90;;;;;;5036402;28;20079;-80
2024/02/11 04:37:55;;;;;;;48.55;21.00;;;8.50;99.90;;;;;;5054920;28;20080;-80
2024/02/11 04:40:22;;;;;;;49.10;20.90;;;8.40;99.90;;;;;;5036588;28;20087;-80
2024/02/11 04:42:56;;;;;;;47.85;20.85;;;8.50;99.90;;;;;;5054477;28;20048;-80
2024/02/11 04:45:24;;;;;;;48.20;20.90;;;8.40;99.90;;;;;;5036245;28;20041;-80
2024/02/11 04:47:53;;;;;;;53.20;21.08;;;8.50;99.90;;;;;;5019784;28;20644;-80
2024/02/11 04:50:21;;;;;;;54.60;20.60;;;8.30;99.90;;;;;;5019602;28;20036;-80
2024/02/11 04:52:54;;;;;;;53.90;22.90;;;8.50;99.90;;;;;;5035797;28;20083;-80
2024/02/11 04:55:40;;;;;;;56.17;22.67;;;8.60;99.90;;;;;;5036323;28;20037;-80
2024/02/11 04:58:14;;;;;;;51.92;22.05;;;8.20;99.90;;;;;;5036179;28;20037;-80
2024/02/11 05:00:41;;;;;;;57.80;22.73;;;8.20;99.90;;;;;;5035771;28;20058;-80
2024/02/11 05:03:07;;;;;;;59.50;22.83;;;8.30;99.90;;;;;;5053539;28;20404;-80
2024/02/11 05:05:34;;;;;;;56.28;23.27;;;8.50;99.90;;;;;;5035941;28;20032;-80
2024/02/11 05:08:04;;;;;;;59.17;21.98;;;8.40;99.90;;;;;;5035756;28;20041;-80
2024/02/11 05:10:34;;;;;;;59.20;22.52;;;8.20;99.90;;;;;;5019530;28;20115;-80
2024/02/11 05:13:07;;;;;;;62.20;24.70;;;8.20;99.90;;;;;;5036164;28;20029;-81
2024/02/11 05:15:38;;;;;;;65.88;23.05;;;8.20;99.90;;;;;;5035787;28;20408;-80
2024/02/11 05:18:05;;;;;;;58.72;23.67;;;8.30;99.90;;;;;;5019523;28;20113;-80
2024/02/11 05:20:31;;;;;;;55.47;22.90;;;8.40;99.90;;;;;;5053546;28;20048;-80
2024/02/11 05:22:58;;;;;;;56.55;23.63;;;8.10;99.90;;;;;;5053524;28;20508;-80
2024/02/11 05:25:26;;;;;;;60.58;24.15;;;8.30;99.90;;;;;;5053321;28;20052;-80
2024/02/11 05:28:00;;;;;;;54.92;23.77;;;8.20;99.90;;;;;;5053438;28;20134;-80
2024/02/11 05:30:27;;;;;;;68.40;25.60;;;8.10;99.90;;;;;;5053732;28;20102;-80
2024/02/11 05:32:54;;;;;;;58.00;23.50;;;8.20;99.90;;;;;;5036151;28;20400;-80
2024/02/11 05:35:23;;;;;;;63.47;24.50;;;8.40;99.90;;;;;;5053373;28;20068;-80
2024/02/11 05:37:55;;;;;;;71.13;26.05;;;8.20;99.90;;;;;;5035784;28;20037;-80
2024/02/11 05:40:26;;;;;;;59.42;23.90;;;8.10;99.90;;;;;;5053093;28;20116;-80
2024/02/11 05:42:53;;;;;;;60.85;24.60;;;8.10;99.90;;;;;;5053581;28;20127;-80
2024/02/11 05:45:20;;;;;;;59.33;24.38;;;8.30;99.90;;;;;;5053082;28;20041;-80
2024/02/11 05:47:47;;;;;;;63.88;24.40;;;8.20;99.90;;;;;;5035193;28;20752;-80
2024/02/11 05:50:13;;;;;;;65.88;26.65;;;8.40;99.90;;;;;;5035096;28;20036;-81
2024/02/11 05:52:39;;;;;;;66.28;25.65;;;8.40;99.90;;;;;;5035128;28;20041;-80
2024/02/11 05:55:09;;;;;;;64.50;23.38;;;8.40;99.90;;;;;;5035140;28;20055;-80
2024/02/11 05:57:41;;;;;;;60.47;24.67;;;8.40;99.90;;;;;;5028477;28;20037;-80
2024/02/11 06:00:14;;;;;;;64.40;25.60;;;8.30;99.90;;;;;;4998644;28;20037;-80
2024/02/11 06:02:44;;;;;;;66.10;24.58;;;8.20;99.90;;;;;;4998803;28;20037;-80
2024/02/11 06:05:13;;;;;;;61.80;25.48;;;8.10;99.90;;;;;;5014690;28;20532;-80
2024/02/11 06:07:46;;;;;;;74.25;25.23;;;8.40;99.90;;;;;;5015263;28;20042;-80
2024/02/11 06:10:13;;;;;;;65.82;25.15;;;8.40;99.90;;;;;;5014942;28;20033;-80
2024/02/11 06:12:39;;;;;;;54.45;25.05;;;8.30;99.90;;;;;;5015134;28;20030;-80
2024/02/11 06:15:20;;;;;;;65.72;25.73;;;8.50;99.90;;;;;;4998396;28;20060;-81
2024/02/11 06:17:53;;;;;;;65.57;25.35;;;8.40;99.90;;;;;;5015144;28;20493;-80
2024/02/11 06:20:19;;;;;;;68.25;25.10;;;8.40;99.90;;;;;;5014742;28;20497;-80
2024/02/11 06:22:49;;;;;;;66.57;26.02;;;8.50;99.90;;;;;;5014933;28;20447;-80
2024/02/11 06:25:16;;;;;;;64.68;24.33;;;8.40;99.90;;;;;;5032432;28;20045;-80
2024/02/11 06:27:42;;;;;;;67.10;26.05;;;8.50;99.90;;;;;;5014583;28;20063;-80
2024/02/11 06:30:12;;;;;;;71.35;25.45;;;8.50;99.90;;;;;;5014313;28;20420;-80
2024/02/11 06:32:42;;;;;;;60.13;25.23;;;8.30;99.90;;;;;;5014516;28;20052;-80
2024/02/11 06:35:11;;;;;;;66.28;24.48;;;8.50;99.90;;;;;;5014158;28;20051;-80
2024/02/11 06:37:38;;;;;;;67.13;24.73;;;8.20;99.90;;;;;;5014739;28;20507;-80
2024/02/11 06:40:12;;;;;;;72.97;24.92;;;8.20;99.90;;;;;;4997947;28;20167;-81
2024/02/11 06:42:39;;;;;;;75.88;25.73;;;8.50;99.90;;;;;;5014451;28;20157;-80
2024/02/11 06:45:08;;;;;;;64.57;25.55;;;8.20;99.90;;;;;;4997738;28;20049;-80
2024/02/11 06:47:37;;;;;;;65.35;24.75;;;8.40;99.90;;;;;;5014259;28;20045;-80
2024/02/11 06:50:08;;;;;;;71.32;23.67;;;8.30;99.90;;;;;;5014142;28;20040;-80
2024/02/11 06:52:34;;;;;;;63.78;26.05;;;8.10;99.90;;;;;;5013984;28;20081;-80
2024/02/11 06:55:01;;;;;;;74.40;27.00;;;8.10;99.90;;;;;;5014054;28;20057;-80
2024/02/11 06:57:29;;;;;;;70.22;25.35;;;8.20;99.90;;;;;;5013886;28;20073;-81
2024/02/11 06:59:57;;;;;;;67.25;27.55;;;8.20;99.90;;;;;;4997730;28;20106;-80
2024/02/11 07:02:24;;;;;;;91.82;27.55;;;8.20;99.90;;;;;;5014239;28;20120;-80
2024/02/11 07:04:52;;;;;;;71.00;26.77;;;8.20;99.90;;;;;;5031706;28;20057;-79
2024/02/11 07:07:18;;;;;;;55.97;25.10;;;8.30;99.90;;;;;;5013957;28;20081;-80
2024/02/11 07:09:44;;;;;;;65.18;24.60;;;8.30;99.90;;;;;;5013875;28;20084;-80
2024/02/11 07:12:11;;;;;;;68.35;25.95;;;8.10;99.90;;;;;;5014079;28;20148;-79
2024/02/11 07:14:37;;;;;;;74.63;26.45;;;8.30;99.90;;;;;;4997522;28;20096;-80
2024/02/11 07:17:03;;;;;;;80.53;26.02;;;8.10;99.90;;;;;;5033790;28;20029;-80
2024/02/11 07:19:29;;;;;;;57.80;25.20;;;8.40;99.90;;;;;;5018347;28;20508;-80
2024/02/11 07:21:54;;;;;;;74.43;26.30;;;8.50;99.90;;;;;;5018541;28;20049;-79
2024/02/11 07:24:21;;;;;;;69.38;25.00;;;8.10;99.90;;;;;;5036262;28;20042;-80
2024/02/11 07:26:47;;;;;;;76.70;25.70;;;8.20;99.90;;;;;;5017900;28;20081;-79
2024/02/11 07:29:14;;;;;;;64.60;25.05;;;8.40;99.90;;;;;;5017822;28;20053;-80
2024/02/11 07:31:41;;;;;;;81.38;26.80;;;8.00;99.90;;;;;;5019706;28;20080;-79
2024/02/11 07:34:07;;;;;;;67.63;25.33;;;8.40;99.90;;;;;;5040687;28;20040;-79
2024/02/11 07:36:32;;;;;;;67.72;25.08;;;8.00;99.90;;;;;;5022904;28;20033;-80
2024/02/11 07:38:58;;;;;;;64.72;25.58;;;8.10;99.90;;;;;;5040928;28;20100;-79
2024/02/11 07:41:24;;;;;;;64.78;26.55;;;8.40;99.90;;;;;;5023699;28;20405;-79
2024/02/11 07:43:52;;;;;;;64.57;25.38;;;8.20;99.90;;;;;;5005272;28;20060;-79
2024/02/11 07:46:19;;;;;;;70.30;24.95;;;8.40;99.90;;;;;;5038501;28;20041;-80
2024/02/11 07:48:45;;;;;;;67.28;24.88;;;8.30;99.90;;;;;;5021204;28;20049;-80
2024/02/11 07:51:14;;;;;;;82.10;26.27;;;8.10;99.90;;;;;;5021544;28;20056;-79
2024/02/11 07:53:40;;;;;;;74.47;25.65;;;8.40;99.90;;;;;;5020046;28;20042;-80
2024/02/11 07:56:13;;;;;;;62.92;24.38;;;8.00;99.90;;;;;;5038455;28;20037;-79
2024/02/11 07:58:42;;;;;;;63.60;24.45;;;8.40;99.90;;;;;;5019879;28;20052;-79
2024/02/11 08:01:08;;;;;;;75.05;24.75;;;8.20;99.90;;;;;;5020191;28;20128;-79
2024/02/11 08:03:34;;;;;;;71.15;27.70;;;8.30;99.90;;;;;;5035498;28;20080;-78
2024/02/11 08:06:00;;;;;;;68.50;27.48;;;8.10;99.90;;;;;;5017543;28;20046;-79
2024/02/11 08:08:26;;;;;;;72.25;24.48;;;8.00;99.90;;;;;;5017009;28;20051;-79
2024/02/11 08:10:52;;;;;;;64.93;24.75;;;8.40;99.90;;;;;;5017078;28;20452;-79
2024/02/11 08:13:18;;;;;;;71.90;25.77;;;8.00;99.90;;;;;;5034929;28;20038;-79
2024/02/11 08:15:46;;;;;;;77.20;26.65;;;8.10;99.90;;;;;;5000621;28;20141;-79
2024/02/11 08:18:12;;;;;;;70.18;24.98;;;8.20;99.90;;;;;;5016783;28;20485;-79
2024/02/11 08:20:38;;;;;;;74.35;25.60;;;8.10;99.90;;;;;;5016947;28;20075;-80
2024/02/11 08:23:05;;;;;;;81.88;27.17;;;8.10;99.90;;;;;;5016760;28;20543;-80
2024/02/11 08:25:31;;;;;;;71.03;26.80;;;8.50;99.90;;;;;;5016626;28;20058;-79
2024/02/11 08:27:56;;;;;;;76.80;24.83;;;8.10;99.90;;;;;;5015910;28;20501;-79
2024/02/11 08:30:23;;;;;;;65.68;26.25;;;8.50;99.90;;;;;;5016353;28;20112;-79
2024/02/11 08:32:49;;;;;;;73.25;25.52;;;8.40;99.90;;;;;;5016502;28;20077;-79
2024/02/11 08:35:15;;;;;;;67.97;24.42;;;8.20;99.90;;;;;;5016909;28;20044;-79
2024/02/11 08:37:41;;;;;;;76.20;25.95;;;8.20;99.90;;;;;;5016985;28;20041;-80
2024/02/11 08:40:07;;;;;;;63.15;25.00;;;8.40;99.90;;;;;;5016863;28;20045;-79
2024/02/11 08:42:33;;;;;;;76.10;27.15;;;8.20;99.90;;;;;;5016673;28;20107;-80
2024/02/11 08:45:00;;;;;;;73.53;27.80;;;8.30;99.90;;;;;;5034363;28;20044;-80
2024/02/11 08:47:26;;;;;;;68.03;27.08;;;8.50;99.90;;;;;;5016596;28;20087;-80
2024/02/11 08:49:52;;;;;;;76.35;26.35;;;8.50;99.90;;;;;;5016649;28;20069;-80
2024/02/11 08:52:17;;;;;;;64.63;26.50;;;8.40;99.90;;;;;;5000150;28;20037;-79
2024/02/11 08:54:43;;;;;;;75.55;26.83;;;8.30;99.90;;;;;;5016634;28;20497;-79
2024/02/11 08:57:22;;;;;;;89.18;30.45;;;8.60;99.90;;;;;;5016751;28;20039;-79
2024/02/11 08:59:47;;;;;;;84.65;28.13;;;8.20;99.90;;;;;;5048830;28;20044;-79
2024/02/11 09:02:17;;;;;;;76.63;31.42;;;8.60;99.90;;;;;;5035552;28;20048;-78
2024/02/11 09:04:43;;;;;;;90.30;30.50;;;8.40;99.90;;;;;;5051101;28;20066;-78
2024/02/11 09:07:10;;;;;;;74.05;27.73;;;8.60;99.90;;;;;;5035892;28;20045;-80
2024/02/11 09:09:36;;;;;;;76.03;28.63;;;8.40;99.90;;;;;;5016434;28;20037;-79
2024/02/11 09:12:02;;;;;;;79.05;30.35;;;8.30;99.90;;;;;;5051328;28;20500;-80
2024/02/11 09:14:30;;;;;;;84.00;31.38;;;8.60;99.90;;;;;;5016192;28;20041;-80
2024/02/11 09:17:02;;;;;;;93.25;33.03;;;8.60;99.90;;;;;;5034580;28;20041;-80
2024/02/11 09:19:28;;;;;;;70.15;27.48;;;8.70;99.90;;;;;;5025004;28;20449;-79
2024/02/11 09:21:55;;;;;;;84.18;29.77;;;8.80;99.90;;;;;;5036912;28;20041;-79
2024/02/11 09:24:22;;;;;;;74.15;28.75;;;8.80;99.90;;;;;;5054382;28;20067;-79
2024/02/11 09:26:51;;;;;;;73.65;26.58;;;8.80;99.90;;;;;;5035414;28;20080;-79
2024/02/11 09:29:17;;;;;;;77.07;29.10;;;8.80;99.90;;;;;;5015850;28;20038;-79
2024/02/11 09:31:43;;;;;;;78.60;27.23;;;8.50;99.90;;;;;;5016932;28;20404;-78
2024/02/11 09:34:10;;;;;;;77.32;27.65;;;8.50;99.90;;;;;;5030162;28;20041;-79
2024/02/11 09:36:36;;;;;;;72.40;28.30;;;8.50;99.90;;;;;;5028949;28;20432;-78
2024/02/11 09:39:03;;;;;;;81.90;29.77;;;8.70;99.90;;;;;;5028184;28;20451;-78
2024/02/11 09:41:29;;;;;;;80.28;30.20;;;8.70;99.90;;;;;;5033845;28;20037;-78
2024/02/11 09:43:58;;;;;;;87.88;29.80;;;8.80;99.90;;;;;;5035003;28;20515;-79
2024/02/11 09:46:27;;;;;;;83.00;28.75;;;8.60;99.90;;;;;;5034432;28;20400;-78
2024/02/11 09:48:55;;;;;;;74.50;28.60;;;8.50;99.90;;;;;;5034547;28;20037;-79
2024/02/11 09:51:26;;;;;;;78.35;29.05;;;8.80;99.90;;;;;;5033695;28;20132;-80
2024/02/11 09:53:55;;;;;;;78.45;28.15;;;8.60;99.90;;;;;;5034506;28;20033;-78
2024/02/11 09:56:21;;;;;;;70.55;27.50;;;8.80;99.90;;;;;;5034445;28;20110;-78
2024/02/11 09:58:47;;;;;;;74.80;26.55;;;8.60;99.90;;;;;;5034040;28;20504;-79
2024/02/11 10:01:13;;;;;;;68.63;27.80;;;8.80;99.90;;;;;;5017834;28;20086;-80
2024/02/11 10:03:40;;;;;;;69.38;24.58;;;9.00;99.90;;;;;;5034987;28;20075;-79
2024/02/11 10:06:09;;;;;;;76.40;28.23;;;8.70;99.90;;;;;;5008426;28;20056;-81
2024/02/11 10:08:36;;;;;;;69.03;25.58;;;8.90;99.90;;;;;;5016382;28;20512;-80
2024/02/11 10:11:07;;;;;;;63.80;25.25;;;8.90;99.90;;;;;;5035145;28;20036;-79
2024/02/11 10:13:35;;;;;;;63.63;25.13;;;8.80;99.90;;;;;;5052686;28;20182;-79
2024/02/11 10:16:05;;;;;;;71.07;25.88;;;8.80;99.90;;;;;;5035193;28;20071;-78
2024/02/11 10:18:33;;;;;;;63.72;24.52;;;8.80;99.90;;;;;;5034668;28;20440;-78
2024/02/11 10:20:58;;;;;;;65.28;25.58;;;9.10;99.90;;;;;;5014626;28;20041;-79
2024/02/11 10:23:24;;;;;;;61.92;26.00;;;9.10;99.90;;;;;;5045684;28;20062;-80
2024/02/11 10:25:50;;;;;;;67.78;26.42;;;8.80;99.90;;;;;;5037305;28;20047;-77
2024/02/11 10:28:17;;;;;;;68.60;26.33;;;8.90;99.90;;;;;;5015810;28;20460;-79
2024/02/11 10:30:43;;;;;;;75.82;28.15;;;9.10;99.90;;;;;;5014919;28;20044;-77
2024/02/11 10:33:12;;;;;;;66.97;25.23;;;9.00;99.90;;;;;;5014718;28;20087;-77
2024/02/11 10:35:41;;;;;;;71.68;27.20;;;9.20;99.90;;;;;;5014362;28;20038;-76
2024/02/11 10:38:07;;;;;;;65.22;27.77;;;8.90;99.90;;;;;;5025918;28;20048;-76
2024/02/11 10:40:37;;;;;;;65.53;26.05;;;9.00;99.90;;;;;;5017828;28;20048;-76
2024/02/11 10:43:05;;;;;;;65.65;26.75;;;9.20;99.90;;;;;;5025278;28;20041;-77
2024/02/11 10:45:31;;;;;;;64.50;26.13;;;9.30;99.90;;;;;;5022664;28;20037;-77
2024/02/11 10:47:57;;;;;;;62.65;24.70;;;9.00;99.90;;;;;;5032842;28;20112;-76
2024/02/11 10:50:23;;;;;;;70.88;28.02;;;9.20;99.90;;;;;;5034219;28;20041;-77
2024/02/11 10:52:50;;;;;;;62.80;25.63;;;9.40;99.90;;;;;;5051830;28;20040;-77
2024/02/11 10:55:19;;;;;;;69.95;26.85;;;9.10;99.90;;;;;;5014271;28;20484;-76
2024/02/11 10:57:52;;;;;;;68.20;26.95;;;9.30;99.90;;;;;;5008268;28;20053;-76
2024/02/11 11:00:20;;;;;;;73.07;26.92;;;9.50;99.90;;;;;;5017397;28;20040;-74
2024/02/11 11:02:58;;;;;;;70.97;28.33;;;9.40;99.90;;;;;;5011233;28;20038;-75
2024/02/11 11:05:30;;;;;;;68.35;26.65;;;9.20;99.90;;;;;;5044869;28;20051;-76
2024/02/11 11:07:57;;;;;;;70.00;29.23;;;9.50;99.90;;;;;;5033533;28;20033;-77
2024/02/11 11:10:27;;;;;;;70.75;29.17;;;9.30;99.90;;;;;;5051385;28;20400;-76
2024/02/11 11:12:57;;;;;;;67.18;27.88;;;9.40;99.90;;;;;;5019532;28;20029;-77
2024/02/11 11:15:24;;;;;;;76.53;29.15;;;9.40;99.90;;;;;;5013979;28;20041;-76
2024/02/11 11:17:51;;;;;;;72.07;30.08;;;9.50;99.90;;;;;;5032450;28;20378;-78
2024/02/11 11:20:18;;;;;;;83.18;33.45;;;9.30;99.90;;;;;;5034277;28;20037;-76
2024/02/11 11:22:50;;;;;;;90.13;34.65;;;9.50;99.90;;;;;;5013923;28;20048;-76
2024/02/11 11:25:34;;;;;;;75.10;31.88;;;9.60;99.90;;;;;;5033578;28;20045;-76
2024/02/11 11:28:10;;;;;;;;;;;9.70;99.90;;;;;;5033090;28;20060;-78
2024/02/11 11:30:36;;;;;;;68.93;30.95;;;9.50;99.90;;;;;;5024399;28;19924;-77
2024/02/11 11:33:04;;;;;;;77.55;31.77;;;9.40;99.90;;;;;;5051162;28;20044;-76
2024/02/11 11:35:30;;;;;;;74.82;30.98;;;9.80;99.90;;;;;;5051226;28;20037;-77
2024/02/11 11:38:02;;;;;;;82.75;33.42;;;9.70;99.90;;;;;;5014078;28;20128;-76
2024/02/11 11:40:29;;;;;;;84.33;32.97;;;9.70;99.90;;;;;;5033208;28;20047;-75
2024/02/11 11:42:55;;;;;;;86.05;31.75;;;9.90;99.90;;;;;;5033654;28;20459;-77
2024/02/11 11:45:21;;;;;;;72.10;31.65;;;9.60;99.90;;;;;;5033010;28;20041;-76
2024/02/11 11:47:55;;;;;;;73.03;33.03;;;9.90;99.90;;;;;;5033217;28;20033;-77
2024/02/11 11:50:21;;;;;;;76.45;33.80;;;9.80;99.90;;;;;;5032759;28;20508;-76
2024/02/11 11:52:57;;;;;;;69.25;31.05;;;9.90;99.90;;;;;;5033181;28;20120;-75
2024/02/11 11:55:24;;;;;;;77.47;33.35;;;9.90;99.90;;;;;;5014372;28;20036;-78
2024/02/11 11:57:55;;;;;;;59.60;30.15;;;9.70;99.90;;;;;;5025452;28;20036;-77
2024/02/11 12:00:21;;;;;;;64.75;30.55;;;10.10;99.90;;;;;;5033235;28;20040;-76
2024/02/11 12:02:47;;;;;;;52.40;25.52;;;9.90;99.90;;;;;;5042779;28;20041;-75
2024/02/11 12:05:13;;;;;;;31.30;15.90;;;10.00;99.90;;;;;;5030575;28;20048;-77
2024/02/11 12:07:39;;;;;;;24.17;13.15;;;9.70;99.90;;;;;;5036643;28;20041;-77
2024/02/11 12:10:05;;;;;;;15.48;9.30;;;9.70;99.90;;;;;;5036498;28;20036;-77
2024/02/11 12:12:31;;;;;;;14.90;9.05;;;9.80;99.90;;;;;;5036756;28;20041;-76
2024/02/11 12:14:57;;;;;;;13.38;8.98;;;9.60;99.90;;;;;;5036938;28;20436;-77
2024/02/11 12:17:23;;;;;;;12.68;8.15;;;9.80;99.90;;;;;;5020140;28;20049;-76
2024/02/11 12:19:49;;;;;;;15.02;9.18;;;9.70;99.90;;;;;;5036743;28;20060;-77
2024/02/11 12:22:15;;;;;;;17.90;9.60;;;9.70;99.90;;;;;;5019838;28;20048;-76
2024/02/11 12:24:43;;;;;;;14.15;9.23;;;9.50;99.90;;;;;;5054484;28;20033;-76
2024/02/11 12:27:17;;;;;;;14.13;9.57;;;9.60;99.90;;;;;;5016920;28;20116;-77
2024/02/11 12:29:58;;;;;;;14.82;9.18;;;9.70;99.90;;;;;;5035728;28;20072;-76
2024/02/11 12:32:25;;;;;;;17.33;9.70;;;9.60;99.90;;;;;;5054162;28;20063;-76
2024/02/11 12:34:56;;;;;;;11.95;8.70;;;9.60;99.90;;;;;;5016227;28;20612;-76
2024/02/11 12:37:23;;;;;;;14.88;10.20;;;9.30;99.90;;;;;;5024474;28;20047;-76
2024/02/11 12:39:50;;;;;;;13.18;8.32;;;9.30;99.90;;;;;;5053582;28;20044;-76